createdAt,value
2019-05-26T13:43:18.019Z,3.00
2019-05-26T13:45:49.448Z,2.35
2019-05-26T13:48:19.661Z,2.30
2019-05-26T13:50:50.273Z,2.15
2019-05-26T13:53:20.581Z,1.90
2019-05-26T13:55:50.916Z,1.70
2019-05-26T13:58:21.381Z,3.10
2019-05-26T14:03:24.212Z,2.30
2019-05-26T14:05:53.915Z,2.50
2019-05-26T14:10:53.230Z,2.00
2019-05-26T14:15:55.781Z,2.00
2019-05-26T14:18:27.190Z,1.80
2019-05-26T14:20:57.829Z,1.85
2019-05-26T14:25:57.372Z,2.20
2019-05-26T14:30:57.398Z,1.90
2019-05-26T14:38:42.000Z,1.70
2019-05-26T14:41:01.177Z,1.70
2019-05-26T14:46:00.654Z,2.20
2019-05-26T14:48:31.170Z,1.80
2019-05-26T14:51:01.409Z,1.65
2019-05-26T15:01:01.192Z,2.50
2019-05-26T15:03:31.711Z,2.40
2019-05-26T15:06:05.890Z,2.30
2019-05-26T15:08:34.402Z,2.25
2019-05-26T15:13:35.039Z,2.30
2019-05-26T15:16:09.732Z,1.80
2019-05-26T15:21:06.567Z,2.53
2019-05-26T15:23:39.549Z,2.80
2019-05-26T15:26:09.767Z,2.35
2019-05-26T15:28:39.970Z,1.90
2019-05-26T15:33:40.680Z,2.40
2019-05-26T15:36:11.319Z,1.67
2019-05-26T15:38:43.289Z,2.20
2019-05-26T15:41:13.909Z,1.80
2019-05-26T15:43:44.239Z,1.55
2019-05-26T15:48:46.116Z,1.60
2019-05-26T15:53:45.812Z,1.50
2019-05-26T15:56:17.992Z,1.90
2019-05-26T16:01:17.698Z,1.30
2019-05-26T16:03:47.996Z,1.33
2019-05-26T16:06:18.296Z,1.77
2019-05-26T16:08:48.618Z,1.23
2019-05-26T16:11:19.180Z,1.80
2019-05-26T16:16:18.970Z,1.50
2019-05-26T16:18:51.697Z,1.43
2019-05-26T16:21:28.050Z,1.90
2019-05-26T16:23:54.064Z,1.50
2019-05-26T16:26:27.065Z,2.00
2019-05-26T16:28:57.508Z,1.60
2019-05-26T16:31:27.739Z,2.10
2019-05-26T16:43:55.705Z,1.33
2019-05-26T16:48:55.340Z,2.00
2019-05-26T16:51:25.649Z,1.40
2019-05-26T16:56:25.552Z,1.30
2019-05-26T16:58:55.755Z,4.17
2019-05-26T17:11:21.153Z,1.35
2019-05-26T17:13:52.504Z,1.90
2019-05-26T17:16:23.110Z,1.80
2019-05-26T17:18:53.487Z,1.80
2019-05-26T17:21:25.413Z,1.70
2019-05-26T17:23:55.787Z,1.50
2019-05-26T17:26:26.195Z,1.30
2019-05-26T17:28:56.344Z,1.70
2019-05-26T17:31:26.572Z,1.90
2019-05-26T17:33:56.713Z,1.43
2019-05-26T17:36:27.170Z,1.70
2019-05-26T17:38:58.143Z,1.60
2019-05-26T17:41:28.586Z,1.40
2019-05-26T17:46:28.620Z,2.00
2019-05-26T17:48:59.531Z,2.00
2019-05-26T17:54:15.727Z,1.60
2019-05-26T17:59:15.280Z,1.73
2019-05-26T18:01:45.544Z,2.00
2019-05-26T18:04:15.834Z,1.73
2019-05-26T18:06:46.337Z,1.63
2019-05-26T18:09:17.122Z,1.53
2019-05-26T18:11:47.497Z,1.87
2019-05-26T18:14:17.881Z,1.30
2019-05-26T18:16:48.603Z,1.60
2019-05-26T18:19:19.982Z,1.70
2019-05-26T18:21:50.196Z,1.40
2019-05-26T18:24:20.416Z,1.43
2019-05-26T18:26:50.751Z,1.40
2019-05-26T18:29:21.091Z,1.73
2019-05-26T18:31:51.713Z,1.33
2019-05-26T18:34:22.021Z,1.70
2019-05-26T18:36:52.303Z,1.43
2019-05-26T18:39:22.608Z,1.20
2019-05-26T18:41:52.735Z,1.47
2019-05-26T18:44:22.905Z,1.43
2019-05-26T18:46:53.886Z,1.20
2019-05-26T18:49:24.215Z,1.37
2019-05-26T18:51:56.038Z,1.53
2019-05-26T18:54:28.526Z,1.30
2019-05-26T18:57:00.660Z,1.20
2019-05-26T18:59:32.792Z,1.23
2019-05-26T19:02:04.273Z,1.10
2019-05-26T19:04:35.033Z,1.53
2019-05-26T19:07:05.833Z,2.23
2019-05-26T19:09:37.055Z,1.67
2019-05-26T19:12:08.404Z,1.50
2019-05-26T19:14:40.284Z,1.40
2019-05-26T19:17:11.584Z,1.33
2019-05-26T19:19:43.282Z,1.30
2019-05-26T19:22:15.291Z,1.30
2019-05-26T19:24:45.731Z,2.77
2019-05-26T19:27:18.272Z,2.10
2019-05-26T19:29:49.205Z,1.90
2019-05-26T19:32:20.781Z,1.70
2019-05-26T19:34:51.496Z,2.10
2019-05-26T19:37:23.288Z,1.90
2019-05-26T19:39:56.523Z,1.82
2019-05-26T19:42:29.674Z,1.90
2019-05-26T19:45:00.452Z,1.50
2019-05-26T19:47:31.747Z,1.90
2019-05-26T19:50:03.316Z,2.00
2019-05-26T19:52:34.397Z,2.10
2019-05-26T19:55:06.125Z,1.20
2019-05-26T20:00:09.894Z,1.83
2019-05-26T20:02:45.923Z,2.07
2019-05-26T20:05:17.601Z,1.90
2019-05-26T20:07:48.816Z,2.50
2019-05-26T20:10:20.464Z,2.17
2019-05-26T20:12:51.421Z,1.97
2019-05-26T20:15:22.240Z,1.93
2019-05-26T20:17:52.967Z,2.00
2019-05-26T20:20:23.940Z,2.40
2019-05-26T20:22:54.385Z,2.27
2019-05-26T20:25:25.392Z,1.43
2019-05-26T20:27:56.257Z,1.80
2019-05-26T20:30:27.831Z,1.77
2019-05-26T20:32:58.133Z,1.93
2019-05-26T20:35:28.828Z,2.50
2019-05-26T20:37:59.257Z,1.77
2019-05-26T20:40:31.519Z,1.90
2019-05-26T20:43:02.038Z,1.80
2019-05-26T20:45:32.648Z,2.10
2019-05-26T20:48:03.205Z,2.45
2019-05-26T20:50:34.282Z,1.77
2019-05-26T20:53:05.483Z,2.00
2019-05-26T20:55:36.341Z,1.90
2019-05-26T20:58:07.039Z,2.10
2019-05-26T21:00:37.848Z,2.20
2019-05-26T21:03:08.129Z,1.97
2019-05-26T21:05:38.510Z,2.00
2019-05-26T21:08:09.364Z,1.77
2019-05-26T21:10:39.944Z,2.00
2019-05-26T21:13:11.167Z,1.90
2019-05-26T21:15:41.857Z,2.67
2019-05-26T21:18:12.307Z,2.65
2019-05-26T21:20:43.221Z,2.30
2019-05-26T21:23:13.790Z,2.57
2019-05-26T21:25:44.686Z,2.30
2019-05-26T21:28:14.892Z,1.90
2019-05-26T21:30:45.094Z,2.17
2019-05-26T21:33:16.421Z,2.30
2019-05-26T21:35:48.800Z,2.47
2019-05-26T21:38:19.047Z,2.10
2019-05-26T21:40:49.477Z,2.40
2019-05-26T21:43:19.738Z,1.80
2019-05-26T21:45:50.230Z,2.20
2019-05-26T21:48:20.670Z,2.00
2019-05-26T21:50:51.696Z,2.57
2019-05-26T21:53:21.990Z,2.50
2019-05-26T21:55:52.189Z,2.50
2019-05-26T21:58:22.391Z,2.40
2019-05-26T22:00:53.419Z,2.60
2019-05-26T22:05:52.768Z,3.00
2019-05-26T22:08:22.955Z,2.40
2019-05-26T22:10:53.079Z,2.53
2019-05-26T22:15:52.689Z,2.20
2019-05-26T22:18:22.853Z,2.67
2019-05-26T22:20:53.033Z,2.53
2019-05-26T22:23:23.231Z,2.70
2019-05-26T22:25:53.483Z,2.23
2019-05-26T22:28:23.880Z,2.73
2019-05-26T22:30:56.541Z,2.33
2019-05-26T22:33:26.791Z,2.50
2019-05-26T22:35:56.999Z,2.70
2019-05-26T22:38:27.322Z,2.80
2019-05-26T22:40:57.501Z,3.03
2019-05-26T22:43:27.653Z,2.80
2019-05-26T22:45:57.796Z,2.70
2019-05-26T22:48:28.091Z,2.90
2019-05-26T22:50:59.316Z,3.20
2019-05-26T22:53:29.546Z,3.07
2019-05-26T22:55:59.870Z,2.97
2019-05-26T22:58:30.688Z,3.45
2019-05-26T23:01:00.804Z,3.53
2019-05-26T23:03:31.056Z,3.37
2019-05-26T23:06:01.429Z,3.10
2019-05-26T23:08:31.829Z,2.97
2019-05-26T23:11:03.396Z,2.60
2019-05-26T23:13:36.189Z,2.90
2019-05-26T23:16:06.736Z,3.03
2019-05-26T23:18:36.957Z,3.00
2019-05-26T23:21:07.286Z,2.90
2019-05-26T23:23:37.532Z,3.10
2019-05-26T23:26:08.176Z,3.63
2019-05-26T23:28:39.687Z,2.97
2019-05-26T23:31:15.073Z,3.45
2019-05-26T23:33:49.282Z,3.00
2019-05-26T23:36:19.525Z,3.17
2019-05-26T23:38:49.751Z,2.77
2019-05-26T23:41:19.906Z,3.07
2019-05-26T23:43:50.065Z,2.67
2019-05-26T23:46:20.231Z,3.17
2019-05-26T23:48:50.432Z,3.20
2019-05-26T23:51:20.678Z,3.80
2019-05-26T23:53:50.954Z,2.60
2019-05-26T23:56:21.974Z,4.43
2019-05-26T23:58:52.910Z,3.47
